Time,TemperatureF,DewpointF,PressureIn,WindDirection,WindDirectionDegrees,WindSpeedMPH,WindSpeedGustMPH,Humidity,HourlyPrecipIn,Conditions,Clouds,dailyrainin,SolarRadiationWatts/m^2,SoftwareType,DateUTC
2013-09-21 00:01:00,71.1,68.7,29.78,WSW,244,0.0,2.0,92,0.00,,,0.00,0,Wunderground v.1.15,2013-09-21 04:01:00,
2013-09-21 00:02:00,71.1,69.0,29.78,WSW,244,0.0,2.0,93,0.00,,,0.00,0,Wunderground v.1.15,2013-09-21 04:02:00,
2013-09-21 00:07:00,71.0,68.9,29.78,WSW,244,2.0,2.0,93,0.00,,,0.00,0,Wunderground v.1.15,2013-09-21 04:07:00,
2013-09-21 00:12:00,70.9,68.8,29.78,WSW,244,0.0,2.0,93,0.00,,,0.01,0,Wunderground v.1.15,2013-09-21 04:12:00,
2013-09-21 00:17:00,70.8,68.7,29.78,WSW,244,0.0,2.0,93,0.00,,,0.01,0,Wunderground v.1.15,2013-09-21 04:17:00,
2013-09-21 00:22:00,70.8,69.0,29.78,WSW,244,0.0,1.0,94,0.00,,,0.01,0,Wunderground v.1.15,2013-09-21 04:22:00,
2013-09-21 00:27:00,70.8,69.0,29.78,WSW,243,2.0,2.0,94,0.00,,,0.01,0,Wunderground v.1.15,2013-09-21 04:27:00,
2013-09-21 00:32:00,70.7,68.9,29.78,SW,225,3.0,4.0,94,0.00,,,0.01,0,Wunderground v.1.15,2013-09-21 04:32:00,
2013-09-21 00:37:00,70.6,68.8,29.78,SSW,211,1.0,5.0,94,0.00,,,0.01,0,Wunderground v.1.15,2013-09-21 04:37:00,
2013-09-21 00:42:00,70.6,68.8,29.78,SW,218,4.0,4.0,94,0.00,,,0.01,0,Wunderground v.1.15,2013-09-21 04:42:00,
2013-09-21 00:47:00,70.6,68.8,29.78,SW,223,2.0,5.0,94,0.00,,,0.01,0,Wunderground v.1.15,2013-09-21 04:47:00,
2013-09-21 00:52:00,70.6,68.8,29.78,SW,229,4.0,6.0,94,0.00,,,0.01,0,Wunderground v.1.15,2013-09-21 04:52:00,
2013-09-21 00:57:00,70.6,68.8,29.78,SW,236,4.0,7.0,94,0.00,,,0.01,0,Wunderground v.1.15,2013-09-21 04:57:00,
2013-09-21 01:02:00,70.6,68.8,29.77,SSW,197,4.0,5.0,94,0.00,,,0.01,0,Wunderground v.1.15,2013-09-21 05:02:00,
2013-09-21 01:07:00,70.4,68.6,29.77,SW,236,5.0,9.0,94,0.00,,,0.01,0,Wunderground v.1.15,2013-09-21 05:07:00,
2013-09-21 01:12:00,70.4,68.6,29.77,SW,229,2.0,5.0,94,0.00,,,0.01,0,Wunderground v.1.15,2013-09-21 05:12:00,
2013-09-21 01:17:00,70.4,68.6,29.77,SW,232,2.0,7.0,94,0.00,,,0.01,0,Wunderground v.1.15,2013-09-21 05:17:00,
2013-09-21 01:22:00,70.3,68.5,29.77,SW,232,4.0,6.0,94,0.00,,,0.01,0,Wunderground v.1.15,2013-09-21 05:22:00,
2013-09-21 01:27:00,70.3,68.5,29.76,SW,229,4.0,6.0,94,0.00,,,0.01,0,Wunderground v.1.15,2013-09-21 05:27:00,
2013-09-21 01:32:00,70.3,68.5,29.76,SW,217,2.0,4.0,94,0.00,,,0.01,0,Wunderground v.1.15,2013-09-21 05:32:00,
2013-09-21 01:37:00,70.3,68.5,29.76,SW,226,3.0,5.0,94,0.00,,,0.01,0,Wunderground v.1.15,2013-09-21 05:37:00,
2013-09-21 01:42:00,70.3,68.5,29.76,SW,228,2.0,4.0,94,0.00,,,0.01,0,Wunderground v.1.15,2013-09-21 05:42:00,
2013-09-21 01:47:00,70.3,68.5,29.76,WSW,245,4.0,5.0,94,0.00,,,0.01,0,Wunderground v.1.15,2013-09-21 05:47:00,
2013-09-21 01:52:00,70.4,68.9,29.76,WSW,244,1.0,3.0,95,0.00,,,0.01,0,Wunderground v.1.15,2013-09-21 05:52:00,
2013-09-21 01:57:00,70.3,68.5,29.76,WSW,248,2.0,4.0,94,0.00,,,0.01,0,Wunderground v.1.15,2013-09-21 05:57:00,
2013-09-21 02:02:00,70.3,68.8,29.76,WSW,248,2.0,5.0,95,0.00,,,0.02,0,Wunderground v.1.15,2013-09-21 06:02:00,
2013-09-21 02:07:00,70.3,68.8,29.76,WSW,240,2.0,5.0,95,0.00,,,0.02,0,Wunderground v.1.15,2013-09-21 06:07:00,
2013-09-21 02:12:00,70.3,68.8,29.76,WSW,238,2.0,4.0,95,0.00,,,0.02,0,Wunderground v.1.15,2013-09-21 06:12:00,
2013-09-21 02:17:00,70.3,68.8,29.76,WSW,240,4.0,4.0,95,0.00,,,0.02,0,Wunderground v.1.15,2013-09-21 06:17:00,
2013-09-21 02:22:00,70.3,68.8,29.76,WSW,238,1.0,4.0,95,0.00,,,0.02,0,Wunderground v.1.15,2013-09-21 06:22:00,
2013-09-21 02:27:00,70.3,68.8,29.76,WSW,244,3.0,5.0,95,0.00,,,0.02,0,Wunderground v.1.15,2013-09-21 06:27:00,
2013-09-21 02:32:00,70.2,68.7,29.75,WSW,242,5.0,8.0,95,0.00,,,0.02,0,Wunderground v.1.15,2013-09-21 06:32:00,
2013-09-21 02:37:00,70.1,68.3,29.75,West,264,5.0,8.0,94,0.00,,,0.02,0,Wunderground v.1.15,2013-09-21 06:37:00,
2013-09-21 02:42:00,70.0,68.2,29.75,West,263,4.0,7.0,94,0.00,,,0.02,0,Wunderground v.1.15,2013-09-21 06:42:00,
2013-09-21 02:47:00,70.0,68.2,29.75,WSW,254,4.0,7.0,94,0.00,,,0.02,0,Wunderground v.1.15,2013-09-21 06:47:00,
2013-09-21 02:53:00,69.9,68.1,29.75,WSW,244,5.0,7.0,94,0.00,,,0.02,0,Wunderground v.1.15,2013-09-21 06:53:00,
2013-09-21 02:57:00,69.9,68.1,29.75,WSW,258,1.0,7.0,94,0.00,,,0.02,0,Wunderground v.1.15,2013-09-21 06:57:00,
2013-09-21 03:03:00,69.8,68.0,29.74,West,280,1.0,5.0,94,0.00,,,0.02,0,Wunderground v.1.15,2013-09-21 07:03:00,
2013-09-21 03:08:00,69.6,67.8,29.73,WNW,290,3.0,5.0,94,0.00,,,0.02,0,Wunderground v.1.15,2013-09-21 07:08:00,
2013-09-21 03:13:00,69.1,67.0,29.73,NE,49,8.0,9.0,93,0.00,,,0.02,0,Wunderground v.1.15,2013-09-21 07:13:00,
2013-09-21 03:18:00,67.9,65.8,29.72,NE,44,4.0,9.0,93,0.00,,,0.02,0,Wunderground v.1.15,2013-09-21 07:18:00,
2013-09-21 03:23:00,67.4,65.3,29.73,NNE,29,1.0,7.0,93,0.00,,,0.02,0,Wunderground v.1.15,2013-09-21 07:23:00,
2013-09-21 03:28:00,66.8,64.7,29.72,NNE,15,6.0,6.0,93,0.00,,,0.02,0,Wunderground v.1.15,2013-09-21 07:28:00,
2013-09-21 03:33:00,66.3,64.5,29.72,NE,34,4.0,7.0,94,0.00,,,0.02,0,Wunderground v.1.15,2013-09-21 07:33:00,
2013-09-21 03:38:00,65.8,64.0,29.71,ENE,68,3.0,5.0,94,0.00,,,0.02,0,Wunderground v.1.15,2013-09-21 07:38:00,
2013-09-21 03:43:00,65.6,64.1,29.71,NE,55,3.0,7.0,95,0.00,,,0.02,0,Wunderground v.1.15,2013-09-21 07:43:00,
2013-09-21 03:48:00,65.6,64.1,29.70,NE,34,2.0,4.0,95,0.00,,,0.02,0,Wunderground v.1.15,2013-09-21 07:48:00,
2013-09-21 03:53:00,65.4,63.9,29.70,NE,42,3.0,7.0,95,0.00,,,0.02,0,Wunderground v.1.15,2013-09-21 07:53:00,
2013-09-21 03:58:00,65.4,63.9,29.70,NE,40,3.0,5.0,95,0.00,,,0.02,0,Wunderground v.1.15,2013-09-21 07:58:00,
2013-09-21 04:03:00,65.4,63.9,29.70,ENE,66,4.0,5.0,95,0.00,,,0.02,0,Wunderground v.1.15,2013-09-21 08:03:00,
2013-09-21 04:08:00,65.3,63.8,29.70,NNE,21,1.0,2.0,95,0.00,,,0.02,0,Wunderground v.1.15,2013-09-21 08:08:00,
2013-09-21 04:13:00,65.4,63.9,29.70,NNE,30,2.0,4.0,95,0.00,,,0.02,0,Wunderground v.1.15,2013-09-21 08:13:00,
2013-09-21 04:18:00,65.4,63.9,29.69,NE,36,2.0,2.0,95,0.00,,,0.02,0,Wunderground v.1.15,2013-09-21 08:18:00,
2013-09-21 04:23:00,65.4,63.9,29.70,NE,37,2.0,5.0,95,0.00,,,0.02,0,Wunderground v.1.15,2013-09-21 08:23:00,
2013-09-21 04:28:00,65.4,63.9,29.70,NNE,13,3.0,4.0,95,0.00,,,0.02,0,Wunderground v.1.15,2013-09-21 08:28:00,
2013-09-21 04:33:00,65.4,63.9,29.70,NNE,26,3.0,6.0,95,0.00,,,0.02,0,Wunderground v.1.15,2013-09-21 08:33:00,
2013-09-21 04:38:00,65.4,63.9,29.70,North,5,5.0,5.0,95,0.00,,,0.02,0,Wunderground v.1.15,2013-09-21 08:38:00,
2013-09-21 04:43:00,65.4,63.9,29.70,NNE,27,4.0,5.0,95,0.00,,,0.02,0,Wunderground v.1.15,2013-09-21 08:43:00,
2013-09-21 04:48:00,65.4,63.9,29.69,North,5,5.0,5.0,95,0.00,,,0.02,0,Wunderground v.1.15,2013-09-21 08:48:00,
2013-09-21 04:53:00,65.4,63.9,29.69,NNE,21,5.0,8.0,95,0.00,,,0.02,0,Wunderground v.1.15,2013-09-21 08:53:00,
2013-09-21 04:58:00,65.4,63.9,29.70,NNE,22,7.0,8.0,95,0.00,,,0.03,0,Wunderground v.1.15,2013-09-21 08:58:00,
2013-09-21 05:03:00,65.4,63.9,29.69,NNE,17,5.0,8.0,95,0.00,,,0.03,0,Wunderground v.1.15,2013-09-21 09:03:00,
2013-09-21 05:08:00,65.4,63.9,29.70,North,5,2.0,5.0,95,0.00,,,0.03,0,Wunderground v.1.15,2013-09-21 09:08:00,
2013-09-21 05:13:00,65.5,64.0,29.70,NNE,19,4.0,7.0,95,0.00,,,0.03,0,Wunderground v.1.15,2013-09-21 09:13:00,
2013-09-21 05:18:00,65.5,64.0,29.70,NE,44,4.0,8.0,95,0.00,,,0.03,0,Wunderground v.1.15,2013-09-21 09:18:00,
2013-09-21 05:23:00,65.5,64.0,29.69,North,355,5.0,8.0,95,0.00,,,0.03,0,Wunderground v.1.15,2013-09-21 09:23:00,
2013-09-21 05:28:00,65.4,63.9,29.69,NNE,26,4.0,5.0,95,0.00,,,0.03,0,Wunderground v.1.15,2013-09-21 09:28:00,
2013-09-21 05:33:00,65.4,63.9,29.69,NE,34,5.0,8.0,95,0.00,,,0.03,0,Wunderground v.1.15,2013-09-21 09:33:00,
2013-09-21 05:38:00,65.4,63.9,29.69,NE,40,5.0,6.0,95,0.00,,,0.03,0,Wunderground v.1.15,2013-09-21 09:38:00,
2013-09-21 05:43:00,65.4,63.9,29.69,NNE,32,6.0,8.0,95,0.00,,,0.03,0,Wunderground v.1.15,2013-09-21 09:43:00,
2013-09-21 05:48:00,65.4,63.9,29.69,North,9,7.0,9.0,95,0.00,,,0.03,0,Wunderground v.1.15,2013-09-21 09:48:00,
2013-09-21 05:53:00,65.3,63.8,29.69,North,349,4.0,9.0,95,0.00,,,0.03,0,Wunderground v.1.15,2013-09-21 09:53:00,
2013-09-21 05:58:00,65.3,63.8,29.70,North,355,2.0,5.0,95,0.00,,,0.03,0,Wunderground v.1.15,2013-09-21 09:58:00,
2013-09-21 06:03:00,65.2,63.7,29.70,North,5,4.0,6.0,95,0.00,,,0.03,0,Wunderground v.1.15,2013-09-21 10:03:00,
2013-09-21 06:08:00,65.1,63.6,29.70,NNE,28,3.0,5.0,95,0.00,,,0.03,0,Wunderground v.1.15,2013-09-21 10:08:00,
2013-09-21 06:13:00,65.1,63.6,29.70,NNE,17,5.0,7.0,95,0.00,,,0.03,0,Wunderground v.1.15,2013-09-21 10:13:00,
2013-09-21 06:18:00,65.0,63.5,29.70,NNW,340,2.0,4.0,95,0.00,,,0.03,0,Wunderground v.1.15,2013-09-21 10:18:00,
2013-09-21 06:23:00,65.0,63.5,29.70,NNE,17,1.0,4.0,95,0.00,,,0.03,0,Wunderground v.1.15,2013-09-21 10:23:00,
2013-09-21 06:28:00,65.0,63.5,29.69,NNE,15,1.0,2.0,95,0.00,,,0.03,0,Wunderground v.1.15,2013-09-21 10:28:00,
2013-09-21 06:33:00,64.9,63.4,29.69,NE,34,2.0,4.0,95,0.00,,,0.03,0,Wunderground v.1.15,2013-09-21 10:33:00,
2013-09-21 06:38:00,64.9,63.4,29.69,NE,34,0.0,2.0,95,0.00,,,0.03,0,Wunderground v.1.15,2013-09-21 10:38:00,
2013-09-21 06:43:00,64.9,63.4,29.69,NE,34,0.0,2.0,95,0.00,,,0.03,0,Wunderground v.1.15,2013-09-21 10:43:00,
2013-09-21 06:48:00,64.8,63.3,29.69,NE,34,0.0,0.0,95,0.00,,,0.03,0,Wunderground v.1.15,2013-09-21 10:48:00,
2013-09-21 06:53:00,64.7,63.2,29.69,NE,34,0.0,0.0,95,0.00,,,0.03,0,Wunderground v.1.15,2013-09-21 10:53:00,
2013-09-21 06:58:00,64.8,63.3,29.68,NE,34,0.0,0.0,95,0.00,,,0.03,0,Wunderground v.1.15,2013-09-21 10:58:00,
2013-09-21 07:03:00,64.8,63.3,29.68,NE,34,0.0,0.0,95,0.00,,,0.03,0,Wunderground v.1.15,2013-09-21 11:03:00,
2013-09-21 07:08:00,64.9,63.4,29.69,NE,34,0.0,0.0,95,0.00,,,0.03,0,Wunderground v.1.15,2013-09-21 11:08:00,
2013-09-21 07:13:00,64.8,63.3,29.69,NE,34,0.0,0.0,95,0.00,,,0.03,0,Wunderground v.1.15,2013-09-21 11:13:00,
2013-09-21 07:18:00,64.7,63.2,29.69,NE,34,1.0,1.0,95,0.00,,,0.03,0,Wunderground v.1.15,2013-09-21 11:18:00,
2013-09-21 07:23:00,64.7,63.2,29.70,NW,304,0.0,4.0,95,0.00,,,0.03,0,Wunderground v.1.15,2013-09-21 11:23:00,
2013-09-21 07:28:00,64.6,63.1,29.70,NW,304,1.0,2.0,95,0.00,,,0.03,0,Wunderground v.1.15,2013-09-21 11:28:00,
2013-09-21 07:33:00,64.6,63.1,29.70,NW,304,1.0,3.0,95,0.00,,,0.03,0,Wunderground v.1.15,2013-09-21 11:33:00,
2013-09-21 07:38:00,64.6,63.1,29.70,NW,309,1.0,2.0,95,0.00,,,0.03,0,Wunderground v.1.15,2013-09-21 11:38:00,
2013-09-21 07:43:00,64.6,63.1,29.70,NW,314,2.0,3.0,95,0.00,,,0.03,0,Wunderground v.1.15,2013-09-21 11:43:00,
2013-09-21 07:49:00,64.6,63.1,29.71,NW,311,3.0,4.0,95,0.00,,,0.03,0,Wunderground v.1.15,2013-09-21 11:49:00,
2013-09-21 07:54:00,64.6,63.1,29.71,NW,311,0.0,4.0,95,0.00,,,0.04,5,Wunderground v.1.15,2013-09-21 11:54:00,
2013-09-21 07:59:00,64.6,63.1,29.72,NW,309,3.0,5.0,95,0.00,,,0.04,5,Wunderground v.1.15,2013-09-21 11:59:00,
2013-09-21 08:04:00,64.6,63.1,29.72,West,275,4.0,6.0,95,0.00,,,0.04,5,Wunderground v.1.15,2013-09-21 12:04:00,
2013-09-21 08:09:00,64.7,63.2,29.72,NNW,339,4.0,4.0,95,0.00,,,0.04,9,Wunderground v.1.15,2013-09-21 12:09:00,
2013-09-21 08:14:00,64.7,63.2,29.72,NW,315,2.0,5.0,95,0.00,,,0.04,12,Wunderground v.1.15,2013-09-21 12:14:00,
2013-09-21 08:19:00,64.8,63.3,29.72,NW,313,1.0,3.0,95,0.00,,,0.04,19,Wunderground v.1.15,2013-09-21 12:19:00,
2013-09-21 08:24:00,64.9,63.4,29.72,NW,313,2.0,3.0,95,0.00,,,0.04,12,Wunderground v.1.15,2013-09-21 12:24:00,
2013-09-21 08:29:00,65.0,63.5,29.73,NW,313,0.0,2.0,95,0.00,,,0.04,0,Wunderground v.1.15,2013-09-21 12:29:00,
2013-09-21 08:34:00,65.0,63.5,29.74,North,5,8.0,11.0,95,0.00,,,0.04,0,Wunderground v.1.15,2013-09-21 12:34:00,
2013-09-21 08:39:00,63.9,61.8,29.73,NNE,32,13.0,15.0,93,0.00,,,0.04,7,Wunderground v.1.15,2013-09-21 12:39:00,
2013-09-21 08:44:00,63.0,60.9,29.73,North,355,7.0,15.0,93,0.00,,,0.04,12,Wunderground v.1.15,2013-09-21 12:44:00,
2013-09-21 08:49:00,62.6,60.5,29.74,North,5,5.0,8.0,93,0.00,,,0.04,25,Wunderground v.1.15,2013-09-21 12:49:00,
2013-09-21 08:54:00,62.3,59.9,29.74,North,9,6.0,15.0,92,0.00,,,0.04,33,Wunderground v.1.15,2013-09-21 12:54:00,
2013-09-21 08:59:00,62.1,59.7,29.74,North,10,5.0,8.0,92,0.00,,,0.04,46,Wunderground v.1.15,2013-09-21 12:59:00,
2013-09-21 09:04:00,62.0,60.0,29.74,North,355,10.0,12.0,93,0.00,,,0.04,35,Wunderground v.1.15,2013-09-21 13:04:00,
2013-09-21 09:09:00,61.8,59.8,29.75,North,355,7.0,9.0,93,0.00,,,0.04,33,Wunderground v.1.15,2013-09-21 13:09:00,
2013-09-21 09:14:00,61.6,59.6,29.75,NNW,342,5.0,9.0,93,0.00,,,0.04,25,Wunderground v.1.15,2013-09-21 13:14:00,
2013-09-21 09:19:00,61.5,59.5,29.75,North,5,8.0,8.0,93,0.00,,,0.04,26,Wunderground v.1.15,2013-09-21 13:19:00,
2013-09-21 09:24:00,61.4,59.4,29.76,NNE,25,5.0,8.0,93,0.00,,,0.04,26,Wunderground v.1.15,2013-09-21 13:24:00,
2013-09-21 09:29:00,61.4,59.7,29.76,NNW,346,6.0,7.0,94,0.00,,,0.04,26,Wunderground v.1.15,2013-09-21 13:29:00,
2013-09-21 09:34:00,61.3,59.6,29.76,NNE,31,6.0,9.0,94,0.00,,,0.04,26,Wunderground v.1.15,2013-09-21 13:34:00,
2013-09-21 09:39:00,61.3,59.6,29.76,NNW,329,7.0,7.0,94,0.00,,,0.04,21,Wunderground v.1.15,2013-09-21 13:39:00,
2013-09-21 09:44:00,61.3,59.6,29.76,NNE,22,1.0,7.0,94,0.00,,,0.04,32,Wunderground v.1.15,2013-09-21 13:44:00,
2013-09-21 09:49:00,61.2,59.5,29.76,ENE,61,4.0,7.0,94,0.00,,,0.04,42,Wunderground v.1.15,2013-09-21 13:49:00,
2013-09-21 09:54:00,60.7,58.7,29.76,NNE,16,12.0,12.0,93,0.00,,,0.04,76,Wunderground v.1.15,2013-09-21 13:54:00,
2013-09-21 09:59:00,60.3,58.3,29.76,NE,43,8.0,9.0,93,0.00,,,0.04,84,Wunderground v.1.15,2013-09-21 13:59:00,
2013-09-21 10:04:00,60.1,58.1,29.77,North,10,4.0,9.0,93,0.00,,,0.04,42,Wunderground v.1.15,2013-09-21 14:04:00,
2013-09-21 10:09:00,60.1,58.1,29.77,NNE,24,5.0,7.0,93,0.00,,,0.04,95,Wunderground v.1.15,2013-09-21 14:09:00,
2013-09-21 10:14:00,60.3,58.3,29.77,NNE,29,5.0,7.0,93,0.00,,,0.04,84,Wunderground v.1.15,2013-09-21 14:14:00,
2013-09-21 10:19:00,60.5,58.5,29.77,NNE,15,4.0,5.0,93,0.00,,,0.04,93,Wunderground v.1.15,2013-09-21 14:19:00,
2013-09-21 10:24:00,60.7,58.7,29.77,North,5,4.0,6.0,93,0.00,,,0.04,67,Wunderground v.1.15,2013-09-21 14:24:00,
2013-09-21 10:29:00,60.7,58.7,29.77,NNW,346,3.0,4.0,93,0.00,,,0.04,83,Wunderground v.1.15,2013-09-21 14:29:00,
2013-09-21 10:34:00,60.9,58.9,29.77,NNW,344,2.0,4.0,93,0.00,,,0.04,118,Wunderground v.1.15,2013-09-21 14:34:00,
2013-09-21 10:39:00,61.0,59.0,29.77,North,360,3.0,6.0,93,0.00,,,0.04,155,Wunderground v.1.15,2013-09-21 14:39:00,
2013-09-21 10:44:00,61.2,59.2,29.77,NNW,340,6.0,9.0,93,0.00,,,0.04,185,Wunderground v.1.15,2013-09-21 14:44:00,
2013-09-21 10:49:00,61.5,59.2,29.77,NNW,341,9.0,9.0,92,0.00,,,0.04,285,Wunderground v.1.15,2013-09-21 14:49:00,
2013-09-21 10:54:00,61.5,58.5,29.77,NNW,336,7.0,10.0,90,0.00,,,0.04,287,Wunderground v.1.15,2013-09-21 14:54:00,
2013-09-21 10:59:00,61.4,58.1,29.77,North,349,5.0,10.0,89,0.00,,,0.04,294,Wunderground v.1.15,2013-09-21 14:59:00,
2013-09-21 11:04:00,61.6,58.3,29.77,NNE,19,6.0,10.0,89,0.00,,,0.04,322,Wunderground v.1.15,2013-09-21 15:04:00,
2013-09-21 11:09:00,61.9,58.9,29.77,North,355,5.0,7.0,90,0.00,,,0.04,313,Wunderground v.1.15,2013-09-21 15:09:00,
2013-09-21 11:14:00,61.7,58.1,29.77,NNE,19,8.0,11.0,88,0.00,,,0.04,297,Wunderground v.1.15,2013-09-21 15:14:00,
2013-09-21 11:19:00,61.8,58.2,29.77,NNE,17,8.0,9.0,88,0.00,,,0.04,308,Wunderground v.1.15,2013-09-21 15:19:00,
2013-09-21 11:24:00,61.8,57.9,29.77,NNW,335,6.0,13.0,87,0.00,,,0.04,308,Wunderground v.1.15,2013-09-21 15:24:00,
2013-09-21 11:29:00,62.0,58.4,29.77,NNW,340,5.0,9.0,88,0.00,,,0.04,311,Wunderground v.1.15,2013-09-21 15:29:00,
2013-09-21 11:34:00,62.2,58.6,29.78,North,360,7.0,9.0,88,0.00,,,0.04,292,Wunderground v.1.15,2013-09-21 15:34:00,
2013-09-21 11:39:00,62.3,58.7,29.78,NNW,338,6.0,8.0,88,0.00,,,0.04,262,Wunderground v.1.15,2013-09-21 15:39:00,
2013-09-21 11:44:00,62.5,58.9,29.77,NNW,329,7.0,9.0,88,0.00,,,0.04,309,Wunderground v.1.15,2013-09-21 15:44:00,
2013-09-21 11:49:00,62.6,58.7,29.78,NNW,343,8.0,10.0,87,0.00,,,0.04,334,Wunderground v.1.15,2013-09-21 15:49:00,
2013-09-21 11:55:00,62.8,58.5,29.77,NNW,328,8.0,10.0,86,0.00,,,0.04,336,Wunderground v.1.15,2013-09-21 15:55:00,
2013-09-21 12:00:00,63.2,58.9,29.77,North,11,3.0,8.0,86,0.00,,,0.04,353,Wunderground v.1.15,2013-09-21 16:00:00,
2013-09-21 12:05:00,63.3,58.7,29.77,NNE,21,8.0,11.0,85,0.00,,,0.04,251,Wunderground v.1.15,2013-09-21 16:05:00,
2013-09-21 12:10:00,63.1,58.2,29.77,NNW,345,7.0,11.0,84,0.00,,,0.04,251,Wunderground v.1.15,2013-09-21 16:10:00,
2013-09-21 12:15:00,63.3,58.7,29.78,North,5,7.0,11.0,85,0.00,,,0.04,290,Wunderground v.1.15,2013-09-21 16:15:00,
2013-09-21 12:20:00,63.4,58.5,29.78,NNW,333,5.0,8.0,84,0.00,,,0.04,265,Wunderground v.1.15,2013-09-21 16:20:00,
2013-09-21 12:25:00,63.6,58.7,29.78,NNE,20,6.0,8.0,84,0.00,,,0.04,272,Wunderground v.1.15,2013-09-21 16:25:00,
2013-09-21 12:30:00,63.9,58.6,29.78,NNW,339,6.0,7.0,83,0.00,,,0.04,272,Wunderground v.1.15,2013-09-21 16:30:00,
2013-09-21 12:35:00,64.1,58.8,29.78,NNE,15,6.0,8.0,83,0.00,,,0.04,274,Wunderground v.1.15,2013-09-21 16:35:00,
2013-09-21 12:40:00,64.6,58.6,29.78,NNW,344,10.0,11.0,81,0.00,,,0.04,758,Wunderground v.1.15,2013-09-21 16:40:00,
2013-09-21 12:45:00,65.1,58.8,29.78,North,9,5.0,12.0,80,0.00,,,0.04,684,Wunderground v.1.15,2013-09-21 16:45:00,
2013-09-21 12:50:00,65.7,57.9,29.78,NNW,342,6.0,12.0,76,0.00,,,0.04,650,Wunderground v.1.15,2013-09-21 16:50:00,
2013-09-21 12:55:00,66.0,58.2,29.78,NNE,32,11.0,12.0,76,0.00,,,0.04,455,Wunderground v.1.15,2013-09-21 16:55:00,
2013-09-21 13:00:00,65.8,57.7,29.78,NNE,24,8.0,13.0,75,0.00,,,0.04,269,Wunderground v.1.15,2013-09-21 17:00:00,
2013-09-21 13:05:00,65.8,58.7,29.78,NNW,344,4.0,13.0,78,0.00,,,0.04,311,Wunderground v.1.15,2013-09-21 17:05:00,
2013-09-21 13:10:00,66.3,58.5,29.78,NNE,19,8.0,11.0,76,0.00,,,0.04,998,Wunderground v.1.15,2013-09-21 17:10:00,
2013-09-21 13:15:00,66.7,57.8,29.78,NNE,30,9.0,12.0,73,0.00,,,0.04,218,Wunderground v.1.15,2013-09-21 17:15:00,
2013-09-21 13:20:00,66.8,58.2,29.78,NNE,15,9.0,14.0,74,0.00,,,0.04,1056,Wunderground v.1.15,2013-09-21 17:20:00,
2013-09-21 13:25:00,67.4,58.4,29.78,NNW,346,9.0,14.0,73,0.00,,,0.04,926,Wunderground v.1.15,2013-09-21 17:25:00,
2013-09-21 13:30:00,67.5,58.2,29.78,North,349,6.0,10.0,72,0.00,,,0.04,947,Wunderground v.1.15,2013-09-21 17:30:00,
2013-09-21 13:35:00,67.6,57.9,29.78,NNE,19,1.0,10.0,71,0.00,,,0.04,297,Wunderground v.1.15,2013-09-21 17:35:00,
2013-09-21 13:40:00,67.0,57.3,29.78,NNW,332,6.0,11.0,71,0.00,,,0.04,1009,Wunderground v.1.15,2013-09-21 17:40:00,
2013-09-21 13:45:00,67.9,58.1,29.78,NNW,337,10.0,11.0,71,0.00,,,0.04,1056,Wunderground v.1.15,2013-09-21 17:45:00,
2013-09-21 13:50:00,68.5,58.3,29.78,NW,312,7.0,12.0,70,0.00,,,0.04,341,Wunderground v.1.15,2013-09-21 17:50:00,
2013-09-21 13:55:00,68.4,57.4,29.77,North,360,5.0,13.0,68,0.00,,,0.04,362,Wunderground v.1.15,2013-09-21 17:55:00,
2013-09-21 14:00:00,68.5,57.9,29.77,NNW,334,4.0,9.0,69,0.00,,,0.04,998,Wunderground v.1.15,2013-09-21 18:00:00,
2013-09-21 14:05:00,68.8,57.0,29.77,NNE,12,8.0,13.0,66,0.00,,,0.04,357,Wunderground v.1.15,2013-09-21 18:05:00,
2013-09-21 14:10:00,69.3,58.3,29.77,North,5,6.0,11.0,68,0.00,,,0.04,357,Wunderground v.1.15,2013-09-21 18:10:00,
2013-09-21 14:15:00,68.6,56.8,29.77,NNE,28,15.0,15.0,66,0.00,,,0.04,218,Wunderground v.1.15,2013-09-21 18:15:00,
2013-09-21 14:20:00,68.2,57.6,29.77,NNE,29,4.0,9.0,69,0.00,,,0.04,306,Wunderground v.1.15,2013-09-21 18:20:00,
2013-09-21 14:25:00,68.0,57.0,29.77,North,5,10.0,11.0,68,0.00,,,0.04,329,Wunderground v.1.15,2013-09-21 18:25:00,
2013-09-21 14:30:00,68.3,57.3,29.77,NE,49,7.0,13.0,68,0.00,,,0.04,918,Wunderground v.1.15,2013-09-21 18:30:00,
2013-09-21 14:35:00,68.9,57.1,29.77,North,5,10.0,13.0,66,0.00,,,0.04,947,Wunderground v.1.15,2013-09-21 18:35:00,
2013-09-21 14:40:00,69.2,57.4,29.77,North,5,4.0,10.0,66,0.00,,,0.04,905,Wunderground v.1.15,2013-09-21 18:40:00,
2013-09-21 14:45:00,69.6,56.9,29.77,NNE,16,8.0,13.0,64,0.00,,,0.04,867,Wunderground v.1.15,2013-09-21 18:45:00,
2013-09-21 14:50:00,69.2,56.5,29.77,NE,40,5.0,9.0,64,0.00,,,0.04,271,Wunderground v.1.15,2013-09-21 18:50:00,
2013-09-21 14:55:00,68.7,56.5,29.77,NNE,14,5.0,13.0,65,0.00,,,0.04,942,Wunderground v.1.15,2013-09-21 18:55:00,
2013-09-21 15:00:00,68.4,56.2,29.77,NNE,30,8.0,13.0,65,0.00,,,0.04,211,Wunderground v.1.15,2013-09-21 19:00:00,
2013-09-21 15:05:00,69.0,56.7,29.77,NNE,17,8.0,13.0,65,0.00,,,0.04,229,Wunderground v.1.15,2013-09-21 19:05:00,
2013-09-21 15:10:00,68.1,55.5,29.77,NNE,31,11.0,12.0,64,0.00,,,0.04,178,Wunderground v.1.15,2013-09-21 19:10:00,
2013-09-21 15:15:00,68.2,56.4,29.77,NNE,17,4.0,12.0,66,0.00,,,0.04,877,Wunderground v.1.15,2013-09-21 19:15:00,
2013-09-21 15:20:00,69.7,57.0,29.77,North,360,12.0,13.0,64,0.00,,,0.04,837,Wunderground v.1.15,2013-09-21 19:20:00,
2013-09-21 15:25:00,70.0,55.9,29.77,North,5,6.0,15.0,61,0.00,,,0.04,833,Wunderground v.1.15,2013-09-21 19:25:00,
2013-09-21 15:30:00,70.4,57.2,29.77,NE,36,9.0,11.0,63,0.00,,,0.04,865,Wunderground v.1.15,2013-09-21 19:30:00,
2013-09-21 15:35:00,70.6,56.0,29.77,North,11,5.0,14.0,60,0.00,,,0.04,220,Wunderground v.1.15,2013-09-21 19:35:00,
2013-09-21 15:40:00,69.5,55.9,29.77,North,11,5.0,9.0,62,0.00,,,0.04,223,Wunderground v.1.15,2013-09-21 19:40:00,
2013-09-21 15:45:00,69.9,55.4,29.77,NNE,15,5.0,10.0,60,0.00,,,0.04,269,Wunderground v.1.15,2013-09-21 19:45:00,
2013-09-21 15:50:00,69.6,55.6,29.77,NNE,28,4.0,10.0,61,0.00,,,0.04,209,Wunderground v.1.15,2013-09-21 19:50:00,
2013-09-21 15:55:00,69.5,55.5,29.77,NNW,342,5.0,10.0,61,0.00,,,0.04,729,Wunderground v.1.15,2013-09-21 19:55:00,
2013-09-21 16:00:00,70.1,56.0,29.77,NE,42,6.0,8.0,61,0.00,,,0.04,719,Wunderground v.1.15,2013-09-21 20:00:00,
2013-09-21 16:05:00,70.7,57.0,29.77,North,355,8.0,12.0,62,0.00,,,0.04,621,Wunderground v.1.15,2013-09-21 20:05:00,
2013-09-21 16:10:00,69.4,54.4,29.77,NE,46,6.0,12.0,59,0.00,,,0.04,169,Wunderground v.1.15,2013-09-21 20:10:00,
2013-09-21 16:15:00,68.9,54.4,29.77,NE,37,7.0,14.0,60,0.00,,,0.04,167,Wunderground v.1.15,2013-09-21 20:15:00,
2013-09-21 16:20:00,68.7,54.7,29.77,NNE,22,11.0,14.0,61,0.00,,,0.04,128,Wunderground v.1.15,2013-09-21 20:20:00,
2013-09-21 16:26:00,69.0,54.5,29.77,NNE,20,4.0,14.0,60,0.00,,,0.04,599,Wunderground v.1.15,2013-09-21 20:26:00,
2013-09-21 16:31:00,70.2,55.2,29.77,North,5,3.0,10.0,59,0.00,,,0.04,580,Wunderground v.1.15,2013-09-21 20:31:00,
2013-09-21 16:36:00,70.2,54.2,29.77,NE,48,8.0,10.0,57,0.00,,,0.04,594,Wunderground v.1.15,2013-09-21 20:36:00,
2013-09-21 16:41:00,71.1,55.6,29.76,NNE,24,4.0,8.0,58,0.00,,,0.04,652,Wunderground v.1.15,2013-09-21 20:41:00,
2013-09-21 16:46:00,71.6,54.6,29.77,NNW,334,9.0,12.0,55,0.00,,,0.04,582,Wunderground v.1.15,2013-09-21 20:46:00,
2013-09-21 16:51:00,71.1,54.1,29.77,NNE,19,10.0,15.0,55,0.00,,,0.04,100,Wunderground v.1.15,2013-09-21 20:51:00,
2013-09-21 16:56:00,69.8,53.9,29.77,NNE,13,7.0,15.0,57,0.00,,,0.04,105,Wunderground v.1.15,2013-09-21 20:56:00,
2013-09-21 17:01:00,69.8,54.4,29.77,NNE,13,7.0,9.0,58,0.00,,,0.04,492,Wunderground v.1.15,2013-09-21 21:01:00,
2013-09-21 17:06:00,69.5,53.6,29.77,NNE,26,3.0,10.0,57,0.00,,,0.04,69,Wunderground v.1.15,2013-09-21 21:06:00,
2013-09-21 17:11:00,69.5,54.5,29.77,North,355,5.0,8.0,59,0.00,,,0.04,462,Wunderground v.1.15,2013-09-21 21:11:00,
2013-09-21 17:16:00,70.4,53.5,29.76,NNW,331,5.0,11.0,55,0.00,,,0.04,490,Wunderground v.1.15,2013-09-21 21:16:00,
2013-09-21 17:21:00,70.8,53.8,29.77,NNE,13,11.0,12.0,55,0.00,,,0.04,417,Wunderground v.1.15,2013-09-21 21:21:00,
2013-09-21 17:26:00,70.6,53.1,29.77,NNE,22,4.0,12.0,54,0.00,,,0.04,397,Wunderground v.1.15,2013-09-21 21:26:00,
2013-09-21 17:31:00,70.5,54.0,29.77,North,355,5.0,9.0,56,0.00,,,0.04,378,Wunderground v.1.15,2013-09-21 21:31:00,
2013-09-21 17:36:00,70.7,53.2,29.77,NNW,347,7.0,10.0,54,0.00,,,0.04,387,Wunderground v.1.15,2013-09-21 21:36:00,
2013-09-21 17:41:00,71.0,54.0,29.77,NNW,344,5.0,10.0,55,0.00,,,0.04,424,Wunderground v.1.15,2013-09-21 21:41:00,
2013-09-21 17:46:00,71.3,53.3,29.77,NNE,18,7.0,14.0,53,0.00,,,0.04,408,Wunderground v.1.15,2013-09-21 21:46:00,
2013-09-21 17:51:00,70.8,52.8,29.77,NNE,17,7.0,12.0,53,0.00,,,0.04,90,Wunderground v.1.15,2013-09-21 21:51:00,
2013-09-21 17:56:00,70.1,52.2,29.77,NNE,30,7.0,12.0,53,0.00,,,0.04,288,Wunderground v.1.15,2013-09-21 21:56:00,
2013-09-21 18:01:00,69.9,52.5,29.78,North,360,9.0,10.0,54,0.00,,,0.04,47,Wunderground v.1.15,2013-09-21 22:01:00,
2013-09-21 18:06:00,69.5,52.6,29.78,NNE,17,5.0,10.0,55,0.00,,,0.04,46,Wunderground v.1.15,2013-09-21 22:06:00,
2013-09-21 18:11:00,69.1,52.7,29.78,North,11,6.0,8.0,56,0.00,,,0.04,46,Wunderground v.1.15,2013-09-21 22:11:00,
2013-09-21 18:16:00,68.5,53.1,29.78,North,5,2.0,8.0,58,0.00,,,0.04,47,Wunderground v.1.15,2013-09-21 22:16:00,
2013-09-21 18:21:00,68.3,52.9,29.78,North,5,5.0,5.0,58,0.00,,,0.04,188,Wunderground v.1.15,2013-09-21 22:21:00,
2013-09-21 18:26:00,68.4,53.5,29.78,North,5,2.0,5.0,59,0.00,,,0.04,169,Wunderground v.1.15,2013-09-21 22:26:00,
2013-09-21 18:31:00,68.6,53.7,29.78,NNE,14,2.0,6.0,59,0.00,,,0.04,151,Wunderground v.1.15,2013-09-21 22:31:00,
2013-09-21 18:36:00,68.6,54.2,29.78,NNW,328,3.0,6.0,60,0.00,,,0.04,132,Wunderground v.1.15,2013-09-21 22:36:00,
2013-09-21 18:41:00,68.6,53.2,29.78,NNE,24,5.0,8.0,58,0.00,,,0.04,33,Wunderground v.1.15,2013-09-21 22:41:00,
2013-09-21 18:46:00,68.3,53.9,29.78,North,11,4.0,8.0,60,0.00,,,0.04,30,Wunderground v.1.15,2013-09-21 22:46:00,
2013-09-21 18:51:00,67.8,53.4,29.78,NNE,20,4.0,5.0,60,0.00,,,0.04,74,Wunderground v.1.15,2013-09-21 22:51:00,
2013-09-21 18:56:00,67.5,53.6,29.78,NNW,338,2.0,6.0,61,0.00,,,0.04,26,Wunderground v.1.15,2013-09-21 22:56:00,
2013-09-21 19:01:00,67.1,53.2,29.79,North,355,3.0,4.0,61,0.00,,,0.04,26,Wunderground v.1.15,2013-09-21 23:01:00,
2013-09-21 19:06:00,66.6,53.2,29.78,North,350,1.0,5.0,62,0.00,,,0.04,42,Wunderground v.1.15,2013-09-21 23:06:00,
2013-09-21 19:11:00,66.3,52.9,29.79,NNW,335,1.0,3.0,62,0.00,,,0.04,30,Wunderground v.1.15,2013-09-21 23:11:00,
2013-09-21 19:16:00,66.1,53.1,29.79,North,351,1.0,4.0,63,0.00,,,0.04,21,Wunderground v.1.15,2013-09-21 23:16:00,
2013-09-21 19:21:00,65.8,52.9,29.79,North,351,0.0,3.0,63,0.00,,,0.04,16,Wunderground v.1.15,2013-09-21 23:21:00,
2013-09-21 19:26:00,65.6,53.1,29.79,North,350,1.0,3.0,64,0.00,,,0.04,12,Wunderground v.1.15,2013-09-21 23:26:00,
2013-09-21 19:31:00,65.3,53.2,29.79,North,350,0.0,1.0,65,0.00,,,0.04,9,Wunderground v.1.15,2013-09-21 23:31:00,
2013-09-21 19:36:00,65.0,52.9,29.79,North,351,1.0,3.0,65,0.00,,,0.04,5,Wunderground v.1.15,2013-09-21 23:36:00,
2013-09-21 19:41:00,64.8,52.8,29.79,North,11,1.0,3.0,65,0.00,,,0.04,0,Wunderground v.1.15,2013-09-21 23:41:00,
2013-09-21 19:46:00,64.7,53.1,29.79,North,11,4.0,4.0,66,0.00,,,0.04,0,Wunderground v.1.15,2013-09-21 23:46:00,
2013-09-21 19:51:00,64.3,52.7,29.79,North,11,1.0,3.0,66,0.00,,,0.04,0,Wunderground v.1.15,2013-09-21 23:51:00,
2013-09-21 19:56:00,64.1,52.9,29.80,North,11,2.0,4.0,67,0.00,,,0.04,0,Wunderground v.1.15,2013-09-21 23:56:00,
2013-09-21 20:01:00,63.7,52.9,29.80,North,11,2.0,2.0,68,0.00,,,0.04,0,Wunderground v.1.15,2013-09-22 00:01:00,
2013-09-21 20:06:00,63.3,53.0,29.80,North,5,0.0,2.0,69,0.00,,,0.04,0,Wunderground v.1.15,2013-09-22 00:06:00,
2013-09-21 20:11:00,63.0,52.7,29.80,North,360,0.0,2.0,69,0.00,,,0.04,0,Wunderground v.1.15,2013-09-22 00:11:00,
2013-09-21 20:16:00,62.9,52.6,29.81,North,360,0.0,3.0,69,0.00,,,0.04,0,Wunderground v.1.15,2013-09-22 00:16:00,
2013-09-21 20:21:00,62.6,52.7,29.81,North,360,0.0,2.0,70,0.00,,,0.04,0,Wunderground v.1.15,2013-09-22 00:21:00,
2013-09-21 20:26:00,62.4,52.5,29.81,North,360,0.0,2.0,70,0.00,,,0.04,0,Wunderground v.1.15,2013-09-22 00:26:00,
2013-09-21 20:31:00,62.2,52.3,29.81,North,360,1.0,2.0,70,0.00,,,0.04,0,Wunderground v.1.15,2013-09-22 00:31:00,
2013-09-21 20:36:00,62.1,52.6,29.81,North,360,1.0,3.0,71,0.00,,,0.04,0,Wunderground v.1.15,2013-09-22 00:36:00,
2013-09-21 20:41:00,61.9,52.4,29.81,North,360,0.0,1.0,71,0.00,,,0.04,0,Wunderground v.1.15,2013-09-22 00:41:00,
2013-09-21 20:46:00,61.7,52.2,29.82,North,360,1.0,2.0,71,0.00,,,0.04,0,Wunderground v.1.15,2013-09-22 00:46:00,
2013-09-21 20:51:00,61.6,52.1,29.82,North,360,0.0,1.0,71,0.00,,,0.04,0,Wunderground v.1.15,2013-09-22 00:51:00,
2013-09-21 20:56:00,61.4,52.3,29.82,North,360,0.0,1.0,72,0.00,,,0.04,0,Wunderground v.1.15,2013-09-22 00:56:00,
2013-09-21 21:01:00,61.3,52.6,29.82,North,360,1.0,1.0,73,0.00,,,0.04,0,Wunderground v.1.15,2013-09-22 01:01:00,
2013-09-21 21:06:00,61.3,52.2,29.82,North,360,0.0,2.0,72,0.00,,,0.04,0,Wunderground v.1.15,2013-09-22 01:06:00,
2013-09-21 21:11:00,61.3,52.2,29.82,North,360,0.0,0.0,72,0.00,,,0.04,0,Wunderground v.1.15,2013-09-22 01:11:00,
2013-09-21 21:16:00,61.2,52.5,29.82,North,360,0.0,1.0,73,0.00,,,0.04,0,Wunderground v.1.15,2013-09-22 01:16:00,
2013-09-21 21:21:00,61.0,52.3,29.82,North,360,0.0,0.0,73,0.00,,,0.04,0,Wunderground v.1.15,2013-09-22 01:21:00,
2013-09-21 21:26:00,60.7,52.7,29.82,North,360,0.0,2.0,75,0.00,,,0.04,0,Wunderground v.1.15,2013-09-22 01:26:00,
2013-09-21 21:31:00,60.4,52.8,29.82,North,360,0.0,1.0,76,0.00,,,0.04,0,Wunderground v.1.15,2013-09-22 01:31:00,
2013-09-21 21:36:00,60.1,52.9,29.83,North,360,0.0,1.0,77,0.00,,,0.04,0,Wunderground v.1.15,2013-09-22 01:36:00,
2013-09-21 21:42:00,59.9,53.0,29.82,North,360,0.0,1.0,78,0.00,,,0.04,0,Wunderground v.1.15,2013-09-22 01:42:00,
2013-09-21 21:47:00,59.6,52.7,29.83,North,360,0.0,2.0,78,0.00,,,0.04,0,Wunderground v.1.15,2013-09-22 01:47:00,
2013-09-21 21:52:00,59.4,52.5,29.83,North,360,0.0,1.0,78,0.00,,,0.04,0,Wunderground v.1.15,2013-09-22 01:52:00,
2013-09-21 21:57:00,59.3,52.8,29.83,North,360,0.0,1.0,79,0.00,,,0.04,0,Wunderground v.1.15,2013-09-22 01:57:00,
2013-09-21 22:02:00,59.2,52.3,29.83,North,360,1.0,1.0,78,0.00,,,0.04,0,Wunderground v.1.15,2013-09-22 02:02:00,
2013-09-21 22:07:00,59.2,52.3,29.83,North,360,1.0,2.0,78,0.00,,,0.04,0,Wunderground v.1.15,2013-09-22 02:07:00,
2013-09-21 22:12:00,59.2,52.3,29.83,North,351,2.0,3.0,78,0.00,,,0.04,0,Wunderground v.1.15,2013-09-22 02:12:00,
2013-09-21 22:17:00,59.1,52.2,29.83,NNW,330,1.0,4.0,78,0.00,,,0.04,0,Wunderground v.1.15,2013-09-22 02:17:00,
2013-09-21 22:22:00,58.9,52.1,29.83,NNW,330,0.0,3.0,78,0.00,,,0.04,0,Wunderground v.1.15,2013-09-22 02:22:00,
2013-09-21 22:27:00,58.7,52.2,29.83,NNW,330,2.0,3.0,79,0.00,,,0.04,0,Wunderground v.1.15,2013-09-22 02:27:00,
2013-09-21 22:32:00,58.6,51.8,29.83,NNW,339,0.0,3.0,78,0.00,,,0.04,0,Wunderground v.1.15,2013-09-22 02:32:00,
2013-09-21 22:37:00,58.5,51.7,29.83,NNW,339,0.0,3.0,78,0.00,,,0.04,0,Wunderground v.1.15,2013-09-22 02:37:00,
2013-09-21 22:42:00,58.3,51.8,29.83,NNW,339,0.0,1.0,79,0.00,,,0.04,0,Wunderground v.1.15,2013-09-22 02:42:00,
2013-09-21 22:47:00,58.1,51.6,29.84,NNW,339,1.0,1.0,79,0.00,,,0.04,0,Wunderground v.1.15,2013-09-22 02:47:00,
2013-09-21 22:52:00,58.0,51.2,29.84,NNW,339,0.0,1.0,78,0.00,,,0.04,0,Wunderground v.1.15,2013-09-22 02:52:00,
2013-09-21 22:57:00,58.1,51.3,29.84,NNW,339,0.0,1.0,78,0.00,,,0.04,0,Wunderground v.1.15,2013-09-22 02:57:00,
2013-09-21 23:02:00,58.0,51.2,29.84,NNW,339,0.0,1.0,78,0.00,,,0.04,0,Wunderground v.1.15,2013-09-22 03:02:00,
2013-09-21 23:07:00,57.9,51.4,29.84,NNW,339,0.0,1.0,79,0.00,,,0.04,0,Wunderground v.1.15,2013-09-22 03:07:00,
2013-09-21 23:12:00,57.7,51.2,29.84,NNW,339,0.0,0.0,79,0.00,,,0.04,0,Wunderground v.1.15,2013-09-22 03:12:00,
2013-09-21 23:17:00,57.7,50.9,29.84,NNW,339,0.0,1.0,78,0.00,,,0.04,0,Wunderground v.1.15,2013-09-22 03:17:00,
2013-09-21 23:22:00,57.6,51.1,29.84,NNW,339,0.0,1.0,79,0.00,,,0.04,0,Wunderground v.1.15,2013-09-22 03:22:00,
2013-09-21 23:27:00,57.7,50.9,29.84,NNW,339,1.0,2.0,78,0.00,,,0.04,0,Wunderground v.1.15,2013-09-22 03:27:00,
2013-09-21 23:32:00,57.6,50.8,29.84,NNW,339,0.0,2.0,78,0.00,,,0.04,0,Wunderground v.1.15,2013-09-22 03:32:00,
2013-09-21 23:37:00,57.5,50.7,29.85,NNW,339,0.0,2.0,78,0.00,,,0.04,0,Wunderground v.1.15,2013-09-22 03:37:00,
2013-09-21 23:42:00,57.4,50.9,29.85,NNW,339,0.0,1.0,79,0.00,,,0.04,0,Wunderground v.1.15,2013-09-22 03:42:00,
2013-09-21 23:47:00,57.3,50.8,29.85,NNW,339,0.0,1.0,79,0.00,,,0.04,0,Wunderground v.1.15,2013-09-22 03:47:00,
2013-09-21 23:52:00,57.1,50.6,29.85,NNW,339,0.0,0.0,79,0.00,,,0.04,0,Wunderground v.1.15,2013-09-22 03:52:00,
2013-09-21 23:57:00,56.8,50.7,29.85,NNW,339,0.0,1.0,80,0.00,,,0.04,0,Wunderground v.1.15,2013-09-22 03:57:00,